Terminal Aerodrome Forecast
Issued by NWS

Home | Current Version | Previous Version | Text Only | Print | Product List | Glossary On
Versions: 1 2 3 4 5 6 7 8 9 10 11 12 13
000
FTPA31 PHFO 061729
TAFHTO
TAF
PHTO 061729Z 0618/0718 22005KT P6SM VCSH FEW025 BKN060
      TEMPO 0618/0620 -RA BKN035
     FM062000 12011KT P6SM VCSH SCT025 BKN045
      TEMPO 0622/0702 12012G20KT
     FM070500 VRB05KT P6SM VCSH SCT025 BKN035=

USA.gov is the U.S. government's official web portal to all federal, state and local government web resources and services.